Time;durP1;ratioP1;P1;durP2;ratioP2;P2;SDS_P1;SDS_P2;PMS_P1;PMS_P2;Temp;Humidity;BMP_temperature;BMP_pressure;BME280_temperature;BME280_humidity;BME280_pressure;Samples;Min_cycle;Max_cycle;Signal;HPM_P1;HPM_P2
2023/10/09 02:38:43;;;;;;;22.70;9.20;;;;;;;17.08;82.78;101060.41;6107559;23;20189;-82
2023/10/09 02:41:28;;;;;;;18.27;8.53;;;;;;;17.05;83.07;101061.63;6047345;23;20199;-83
2023/10/09 02:44:12;;;;;;;20.00;10.00;;;;;;;17.04;82.71;101059.94;6067235;23;20176;-83
2023/10/09 02:47:20;;;;;;;18.10;9.90;;;;;;;16.95;83.10;101060.16;6065801;23;20194;-83
2023/10/09 02:50:31;;;;;;;20.23;9.97;;;;;;;16.87;83.64;101063.72;6066102;23;20179;-83
2023/10/09 02:53:19;;;;;;;20.10;9.47;;;;;;;16.79;84.14;101061.06;6067469;23;20511;-83
2023/10/09 02:56:48;;;;;;;24.27;9.50;;;;;;;16.74;84.08;101053.53;6015995;23;20238;-83
2023/10/09 02:59:33;;;;;;;23.43;9.47;;;;;;;16.68;84.17;101053.41;6046659;23;20184;-83
2023/10/09 03:02:16;;;;;;;23.13;10.30;;;;;;;16.59;85.45;101057.09;6067021;23;20532;-83
2023/10/09 03:04:55;;;;;;;21.87;8.83;;;;;;;16.57;85.02;101046.56;6067458;23;20187;-83
2023/10/09 03:07:34;;;;;;;19.10;9.73;;;;;;;16.53;85.44;101055.97;6066665;23;20167;-83
2023/10/09 03:10:10;;;;;;;23.03;9.00;;;;;;;16.46;85.63;101047.75;6067696;23;20627;-83
2023/10/09 03:13:03;;;;;;;18.00;9.23;;;;;;;16.38;86.32;101047.78;6067348;23;20191;-82
2023/10/09 03:16:12;;;;;;;17.73;8.93;;;;;;;16.33;86.20;101044.81;6067246;23;20246;-83
2023/10/09 03:22:12;;;;;;;16.90;8.53;;;;;;;16.28;86.30;101030.25;6067612;23;20183;-83
2023/10/09 03:27:47;;;;;;;15.77;8.70;;;;;;;16.20;86.63;101033.78;6059657;23;20222;-82
2023/10/09 03:30:40;;;;;;;;;;;;;;;;;;;;;
2023/10/09 03:33:47;;;;;;;20.70;8.43;;;;;;;16.09;86.98;101026.97;6066180;23;20239;-83
2023/10/09 03:40:06;;;;;;;19.40;8.20;;;;;;;16.02;87.34;101033.16;6069635;23;20971;-83
2023/10/09 06:06:01;;;;;;;17.47;6.40;;;;;;;15.90;84.53;101047.88;6090965;23;20182;-75
2023/10/09 06:11:49;;;;;;;16.00;6.53;;;;;;;15.99;83.98;101053.06;5953019;24;20186;-72
2023/10/09 06:14:25;;;;;;;15.40;6.67;;;;;;;15.98;84.37;101055.91;6053002;23;20198;-74
2023/10/09 06:17:22;;;;;;;30.00;7.33;;;;;;;16.03;83.88;101056.22;6067231;23;20168;-72
2023/10/09 06:19:58;;;;;;;24.83;7.63;;;;;;;15.94;84.07;101059.91;6068530;23;20227;-72
2023/10/09 06:25:16;;;;;;;19.20;7.00;;;;;;;15.92;84.36;101065.41;6068633;23;20167;-71
2023/10/09 06:28:01;;;;;;;19.27;6.57;;;;;;;15.99;84.41;101069.13;6068085;23;20168;-73
2023/10/09 06:30:28;;;;;;;17.17;6.27;;;;;;;15.98;84.04;101056.75;6068946;23;20242;-74
2023/10/09 06:33:29;;;;;;;21.27;7.77;;;;;;;16.02;83.79;101063.41;6068706;23;20176;-71
2023/10/09 06:36:52;;;;;;;21.03;6.77;;;;;;;15.94;84.72;101070.59;6026219;23;20179;-73
2023/10/09 06:43:47;;;;;;;19.70;7.20;;;;;;;15.95;84.32;101057.06;6058715;23;20231;-74
2023/10/09 06:54:04;;;;;;;17.47;6.43;;;;;;;15.94;85.41;101074.13;6058339;23;20262;-73
2023/10/09 06:59:24;;;;;;;22.27;7.60;;;;;;;15.99;84.90;101060.25;6060017;23;20214;-74
2023/10/09 07:04:54;;;;;;;18.97;6.87;;;;;;;16.04;84.62;101072.09;6059507;23;20179;-74
2023/10/09 07:07:24;;;;;;;18.20;8.40;;;;;;;16.11;83.97;101073.09;6059507;23;20274;-73
2023/10/09 07:12:53;;;;;;;24.10;6.67;;;;;;;16.16;83.82;101078.78;6050476;23;20184;-74
2023/10/09 07:18:23;;;;;;;22.90;7.60;;;;;;;16.20;83.85;101087.28;6059753;23;20199;-73
2023/10/09 07:21:01;;;;;;;30.03;7.90;;;;;;;16.19;83.63;101089.13;6059898;23;20235;-73
2023/10/09 07:23:32;;;;;;;23.27;7.30;;;;;;;16.22;83.49;101096.00;6059407;23;20632;-75
2023/10/09 07:26:18;;;;;;;23.97;7.90;;;;;;;16.22;84.17;101095.16;6060078;23;20174;-73
2023/10/09 07:28:49;;;;;;;22.83;8.17;;;;;;;16.25;84.21;101094.84;6058027;23;20183;-71
2023/10/09 07:31:27;;;;;;;16.80;7.13;;;;;;;16.30;83.75;101097.81;6060099;23;20171;-75
2023/10/09 07:33:57;;;;;;;22.77;7.43;;;;;;;16.32;83.77;101101.16;6059494;23;20170;-74
2023/10/09 07:39:15;;;;;;;23.53;7.53;;;;;;;16.39;83.90;101086.09;6053945;23;20286;-73
2023/10/09 07:41:56;;;;;;;26.03;7.77;;;;;;;16.42;83.50;101085.75;6059540;23;20262;-73
2023/10/09 07:44:37;;;;;;;21.57;7.90;;;;;;;16.41;83.67;101084.94;6059093;23;20288;-72
2023/10/09 07:47:17;;;;;;;22.73;8.00;;;;;;;16.43;83.42;101080.25;6059168;23;20167;-72
2023/10/09 07:49:53;;;;;;;19.77;7.27;;;;;;;16.46;83.30;101076.38;6059662;23;20178;-74
2023/10/09 07:52:26;;;;;;;20.27;7.50;;;;;;;16.45;83.45;101078.22;6058772;23;20263;-74
2023/10/09 07:55:01;;;;;;;17.80;6.80;;;;;;;16.50;83.31;101080.38;6058597;23;20251;-76
2023/10/09 07:57:39;;;;;;;17.27;6.83;;;;;;;16.54;83.81;101081.69;6059257;23;20568;-73
2023/10/09 08:00:35;;;;;;;22.00;8.03;;;;;;;16.61;83.66;101090.75;6059511;23;20175;-74
2023/10/09 08:03:09;;;;;;;29.80;8.63;;;;;;;16.69;83.16;101095.25;6059038;23;20207;-72
2023/10/09 08:05:44;;;;;;;19.57;7.63;;;;;;;16.76;82.77;101097.06;6058422;23;20555;-74
2023/10/09 08:08:39;;;;;;;17.87;6.90;;;;;;;16.82;82.60;101099.03;6057243;23;20777;-74
2023/10/09 08:14:00;;;;;;;21.10;7.63;;;;;;;16.97;81.96;101103.69;6059295;23;20656;-74
2023/10/09 08:16:37;;;;;;;19.57;7.50;;;;;;;17.03;81.58;101106.50;6058751;23;20543;-73
2023/10/09 08:19:32;;;;;;;22.67;6.93;;;;;;;17.15;80.77;101109.63;6058141;23;20305;-71
2023/10/09 08:22:37;;;;;;;19.57;7.20;;;;;;;17.22;80.23;101097.19;6058737;23;20183;-74
2023/10/09 08:25:07;;;;;;;21.77;6.20;;;;;;;17.32;79.92;101095.13;6060422;23;20194;-74
2023/10/09 08:27:54;;;;;;;16.10;7.17;;;;;;;17.35;80.04;101102.81;6058112;23;20183;-73
2023/10/09 08:33:39;;;;;;;18.37;8.03;;;;;;;17.50;79.62;101110.94;6055941;23;20507;-75
2023/10/09 08:36:04;;;;;;;30.77;7.83;;;;;;;17.58;79.89;101119.75;6056621;23;20180;-76
2023/10/09 08:38:36;;;;;;;21.90;7.27;;;;;;;17.65;79.23;101117.22;6056662;23;20202;-74
2023/10/09 08:41:18;;;;;;;18.73;7.10;;;;;;;17.83;78.57;101124.97;6059563;23;20246;-75
2023/10/09 08:43:53;;;;;;;21.97;7.00;;;;;;;17.84;78.19;101129.34;6059722;23;20171;-75
2023/10/09 08:46:23;;;;;;;22.33;7.83;;;;;;;17.90;78.51;101128.59;6058382;23;20164;-70
2023/10/09 08:48:54;;;;;;;23.40;7.37;;;;;;;17.88;78.46;101122.56;6058427;23;20266;-75
2023/10/09 08:51:25;;;;;;;21.23;7.53;;;;;;;17.87;78.21;101128.94;6059959;23;20187;-75
2023/10/09 08:53:53;;;;;;;22.57;7.63;;;;;;;17.90;78.02;101133.97;6060126;23;20188;-76
2023/10/09 08:56:23;;;;;;;27.87;8.60;;;;;;;17.89;78.18;101134.97;6059714;23;20179;-75
2023/10/09 08:58:52;;;;;;;18.47;7.87;;;;;;;17.93;78.21;101129.09;6057190;23;20207;-75
2023/10/09 09:01:21;;;;;;;24.00;8.20;;;;;;;17.95;78.47;101140.44;6059357;23;20287;-69
2023/10/09 09:03:51;;;;;;;18.40;7.37;;;;;;;17.99;78.21;101133.72;6059312;23;20198;-75
2023/10/09 09:06:20;;;;;;;24.10;8.90;;;;;;;18.00;78.70;101130.03;6059180;23;20221;-75
2023/10/09 09:08:48;;;;;;;18.53;8.93;;;;;;;17.96;78.92;101120.66;6059122;23;20199;-74
2023/10/09 09:11:22;;;;;;;25.53;8.50;;;;;;;18.02;78.86;101095.81;6059060;23;20186;-76
2023/10/09 09:14:04;;;;;;;25.23;8.00;;;;;;;18.01;78.85;101091.47;6059660;23;20167;-75
2023/10/09 09:16:36;;;;;;;24.67;7.47;;;;;;;17.99;78.81;101100.69;6059016;23;20688;-74
2023/10/09 09:19:17;;;;;;;24.13;7.60;;;;;;;18.01;78.93;101099.50;6058843;23;20191;-75
2023/10/09 09:21:54;;;;;;;18.50;7.77;;;;;;;17.96;79.38;101109.94;6059943;23;20176;-74
2023/10/09 09:24:30;;;;;;;21.83;8.10;;;;;;;17.99;79.21;101119.47;6061279;23;20171;-74
2023/10/09 09:27:09;;;;;;;21.23;8.00;;;;;;;18.10;78.66;101121.72;6060918;23;20164;-73
2023/10/09 09:29:52;;;;;;;24.10;7.97;;;;;;;18.13;78.24;101121.34;6062606;23;20174;-78
2023/10/09 09:32:36;;;;;;;20.57;7.97;;;;;;;18.26;77.49;101126.94;6061120;23;20176;-74
2023/10/09 09:35:17;;;;;;;24.47;8.83;;;;;;;18.43;76.55;101119.56;6061118;23;20621;-77
2023/10/09 09:37:54;;;;;;;18.43;6.50;;;;;;;18.45;76.58;101111.34;6060992;23;20306;-77
2023/10/09 09:40:30;;;;;;;17.73;7.33;;;;;;;18.42;76.04;101128.63;6061506;23;20191;-77
2023/10/09 09:43:05;;;;;;;21.93;7.37;;;;;;;18.38;75.72;101127.34;6060054;23;20231;-75
2023/10/09 09:45:34;;;;;;;26.60;7.37;;;;;;;18.40;76.39;101122.59;6061382;23;20163;-74
2023/10/09 09:58:49;;;;;;;20.67;6.00;;;;;;;18.35;77.00;101125.84;6060685;23;20719;-73
2023/10/09 10:01:26;;;;;;;23.83;6.63;;;;;;;18.38;76.83;101141.59;6059871;23;20251;-73
2023/10/09 10:03:58;;;;;;;23.27;6.23;;;;;;;18.36;76.84;101135.59;6060696;23;20529;-74
2023/10/09 10:06:31;;;;;;;23.57;6.80;;;;;;;18.45;76.64;101135.50;6060985;23;20775;-72
2023/10/09 10:09:00;;;;;;;28.83;8.33;;;;;;;18.48;76.83;101138.63;6060537;23;20172;-76
2023/10/09 10:11:44;;;;;;;27.80;7.27;;;;;;;18.53;77.00;101152.38;6060800;23;20270;-75
2023/10/09 10:14:21;;;;;;;25.87;7.90;;;;;;;18.53;77.26;101165.78;6062063;23;20171;-74
2023/10/09 10:17:16;;;;;;;24.03;6.93;;;;;;;18.56;76.46;101172.66;6060933;23;20187;-74
2023/10/09 10:22:50;;;;;;;32.53;7.70;;;;;;;18.72;76.47;101157.22;6061040;23;20168;-76
2023/10/09 10:25:35;;;;;;;20.17;7.33;;;;;;;18.82;76.00;101154.28;6061517;23;20187;-73
2023/10/09 10:28:38;;;;;;;19.53;6.07;;;;;;;18.89;75.64;101165.94;6059803;23;20635;-75
2023/10/09 10:31:09;;;;;;;24.90;7.17;;;;;;;18.94;75.03;101146.56;6061228;23;20174;-76
2023/10/09 10:34:10;;;;;;;14.80;6.17;;;;;;;19.05;75.00;101152.31;6061157;23;20259;-75
2023/10/09 10:36:42;;;;;;;14.33;6.33;;;;;;;18.99;74.40;101169.19;6060603;23;20172;-75
2023/10/09 10:39:19;;;;;;;17.20;6.10;;;;;;;19.05;74.75;101163.06;6060673;23;20727;-77
2023/10/09 10:42:33;;;;;;;22.37;6.27;;;;;;;19.17;74.45;101163.44;6060953;23;20218;-76
2023/10/09 10:45:03;;;;;;;21.77;6.63;;;;;;;19.29;73.68;101166.47;6060130;23;20179;-75
2023/10/09 10:47:48;;;;;;;27.27;6.17;;;;;;;19.30;73.97;101163.59;6060172;23;20537;-73
2023/10/09 10:50:36;;;;;;;20.20;6.00;;;;;;;19.45;73.08;101166.22;6061122;23;20223;-78
2023/10/09 10:53:15;;;;;;;21.57;5.90;;;;;;;19.55;72.12;101150.66;6060270;23;20251;-74
2023/10/09 10:55:56;;;;;;;25.07;6.60;;;;;;;19.60;71.91;101132.09;6060338;23;20218;-74
2023/10/09 10:58:24;;;;;;;18.47;6.43;;;;;;;19.67;71.84;101116.03;6059937;23;20195;-75
2023/10/09 11:24:43;;;;;;;20.07;5.10;;;;;;;20.28;67.90;101066.00;6058751;23;20510;-76
2023/10/09 11:27:50;;;;;;;14.87;5.33;;;;;;;20.36;67.52;101079.34;6059092;23;20478;-76
2023/10/09 11:30:32;;;;;;;19.90;5.80;;;;;;;20.48;66.72;101088.56;6059962;23;20166;-76
2023/10/09 11:38:45;;;;;;;12.97;4.80;;;;;;;20.70;64.12;101077.69;6058240;23;20232;-74
2023/10/09 11:44:18;;;;;;;14.50;6.20;;;;;;;20.69;64.33;101062.53;6058518;23;20183;-76
2023/10/09 11:53:17;;;;;;;12.50;5.07;;;;;;;21.55;60.89;101055.59;6049999;23;20215;-75
2023/10/09 11:55:53;;;;;;;14.43;4.80;;;;;;;21.79;60.23;101046.91;6058946;23;20176;-76
2023/10/09 11:58:25;;;;;;;14.83;5.03;;;;;;;21.86;59.46;101047.72;6058720;23;20194;-76
2023/10/09 12:01:08;;;;;;;15.60;5.40;;;;;;;21.98;59.31;101037.16;6059903;23;20191;-73
2023/10/09 12:09:56;;;;;;;16.48;5.43;;;;;;;22.57;55.51;101028.94;6058539;23;20183;-74
2023/10/09 12:12:37;;;;;;;13.25;5.28;;;;;;;22.59;55.18;101032.25;6059997;23;20167;-72
2023/10/09 12:19:16;;;;;;;11.00;5.22;;;;;;;22.44;55.09;101015.44;6057181;23;20183;-74
2023/10/09 12:22:05;;;;;;;14.15;4.93;;;;;;;22.99;53.51;101018.59;6060549;23;20191;-78
2023/10/09 12:25:09;;;;;;;15.68;4.82;;;;;;;23.48;51.38;101021.41;6060148;23;20227;-75
2023/10/09 12:27:57;;;;;;;11.85;4.53;;;;;;;23.39;51.69;101020.03;6058725;23;20406;-75
2023/10/09 12:30:30;;;;;;;10.95;5.55;;;;;;;23.18;51.73;101014.94;6059631;23;20211;-76
2023/10/09 12:33:07;;;;;;;13.38;4.82;;;;;;;23.15;51.77;101012.66;6060104;23;20215;-76
2023/10/09 12:36:04;;;;;;;12.15;4.68;;;;;;;23.39;49.69;101009.19;6059738;23;20217;-76
2023/10/09 12:38:46;;;;;;;12.15;5.07;;;;;;;23.29;50.31;101008.00;6059204;23;20171;-76
2023/10/09 12:41:25;;;;;;;11.38;4.72;;;;;;;23.70;48.43;101002.94;6060803;23;20200;-78
2023/10/09 12:43:58;;;;;;;19.58;6.00;;;;;;;24.24;47.14;100990.56;6059887;23;20790;-77
2023/10/09 12:46:32;;;;;;;15.88;5.45;;;;;;;24.34;46.25;100967.31;6060029;23;20183;-77
2023/10/09 12:49:01;;;;;;;10.30;4.90;;;;;;;24.35;45.31;100965.44;6059710;23;20167;-76
2023/10/09 12:51:30;;;;;;;18.40;5.38;;;;;;;24.34;44.99;100961.06;6059850;23;20183;-77
2023/10/09 12:54:08;;;;;;;18.67;5.18;;;;;;;24.23;45.38;100965.34;6059919;23;20184;-76
2023/10/09 12:56:38;;;;;;;10.07;4.53;;;;;;;24.04;45.41;100971.78;6061659;23;20163;-76
2023/10/09 12:59:14;;;;;;;12.55;5.13;;;;;;;23.90;44.98;100970.25;6062599;23;20179;-75
2023/10/09 13:01:45;;;;;;;13.82;5.60;;;;;;;23.80;45.87;100961.81;6062901;23;20257;-75
2023/10/09 13:04:16;;;;;;;12.93;5.13;;;;;;;23.68;45.21;100964.41;6063898;23;20187;-77
2023/10/09 13:06:47;;;;;;;11.20;5.53;;;;;;;23.61;44.43;100964.47;6061797;23;20184;-77
2023/10/09 13:13:07;;;;;;;15.40;5.85;;;;;;;23.51;45.31;100953.31;4236572;27;25352724;-77
2023/10/09 13:23:23;;;;;;;;;;;;;;;;;;;;;
2023/10/09 13:26:24;;;;;;;10.93;5.45;;;;;;;23.09;44.00;100941.34;5096923;27;20702;-79
2023/10/09 13:29:09;;;;;;;15.65;5.20;;;;;;;23.12;44.31;100948.19;5106320;28;20216;-77
2023/10/09 13:31:48;;;;;;;12.10;5.07;;;;;;;23.22;45.38;100937.69;5110493;27;20891;-80
2023/10/09 13:34:44;;;;;;;12.90;5.70;;;;;;;23.13;45.78;100939.84;5102925;27;20207;-77
2023/10/09 13:37:47;;;;;;;11.82;4.78;;;;;;;23.39;42.47;100938.84;5109761;27;20240;-77
2023/10/09 13:40:26;;;;;;;12.32;5.38;;;;;;;23.33;42.90;100942.41;5108119;28;20201;-77
2023/10/09 13:43:01;;;;;;;11.00;5.15;;;;;;;23.20;41.69;100935.22;5098004;27;20221;-76
2023/10/09 13:46:13;;;;;;;8.60;4.97;;;;;;;23.12;41.65;100934.66;5091832;28;20201;-73
2023/10/09 13:55:17;;;;;;;12.50;5.65;;;;;;;23.04;43.57;100941.19;5092778;28;20206;-75
2023/10/09 13:57:46;;;;;;;15.52;6.25;;;;;;;23.10;43.75;100940.28;5088879;28;20912;-73
2023/10/09 14:00:32;;;;;;;14.93;5.07;;;;;;;23.09;43.65;100944.03;5093219;28;20225;-71
2023/10/09 14:03:13;;;;;;;14.18;5.70;;;;;;;23.12;43.26;100940.91;5091869;28;20271;-75
2023/10/09 14:06:30;;;;;;;10.52;4.90;;;;;;;23.26;42.98;100938.91;5091823;28;20218;-74
2023/10/09 14:09:11;;;;;;;13.52;5.63;;;;;;;23.16;43.20;100949.41;5090106;28;20205;-73
2023/10/09 14:11:52;;;;;;;16.48;6.47;;;;;;;23.15;42.52;100942.31;5075258;28;20606;-74
2023/10/09 14:44:49;;;;;;;12.32;5.15;;;;;;;22.94;44.41;100921.06;4837266;29;20224;-75
2023/10/09 16:10:56;;;;;;;12.90;5.75;;;;;;;22.20;47.72;100913.50;4743844;30;20306;-75
